Terminal Aerodrome Forecast
Issued by NWS Bismarck, ND

Home | Current Version | Previous Version | Text Only | Print | Product List | Glossary Off
Versions: 1 2 3 4 5 6 7 8 9 10 11 12 13

231
FTUS43 KBIS 252321
TAFBIS
TAF
KBIS 252321Z 2600/2624 02013G21KT P6SM OVC020
     FM260400 01011KT P6SM OVC015
     FM261400 36011G19KT P6SM BKN020
     FM262000 01011G19KT P6SM BKN040=

USA.gov is the U.S. government's official web portal to all federal, state and local government web resources and services.